sensor_id;sensor_type;location;lat;lon;timestamp;P1;durP1;ratioP1;P2;durP2;ratioP2
1505;SDS011;744;51.436;7.356;2023-05-21T00:01:03;11.70;;;10.50;;
1505;SDS011;744;51.436;7.356;2023-05-21T00:03:33;11.27;;;10.17;;
1505;SDS011;744;51.436;7.356;2023-05-21T00:06:01;14.77;;;11.10;;
1505;SDS011;744;51.436;7.356;2023-05-21T00:08:29;9.50;;;8.60;;
1505;SDS011;744;51.436;7.356;2023-05-21T00:10:56;13.73;;;10.70;;
1505;SDS011;744;51.436;7.356;2023-05-21T00:13:23;14.67;;;10.30;;
1505;SDS011;744;51.436;7.356;2023-05-21T00:15:50;13.23;;;11.80;;
1505;SDS011;744;51.436;7.356;2023-05-21T00:18:17;10.77;;;9.67;;
1505;SDS011;744;51.436;7.356;2023-05-21T00:20:44;11.50;;;10.37;;
1505;SDS011;744;51.436;7.356;2023-05-21T00:23:10;10.83;;;9.73;;
1505;SDS011;744;51.436;7.356;2023-05-21T00:25:38;15.10;;;10.73;;
1505;SDS011;744;51.436;7.356;2023-05-21T00:28:04;10.43;;;9.27;;
1505;SDS011;744;51.436;7.356;2023-05-21T00:30:31;13.20;;;11.00;;
1505;SDS011;744;51.436;7.356;2023-05-21T00:32:58;10.23;;;9.30;;
1505;SDS011;744;51.436;7.356;2023-05-21T00:35:28;13.70;;;11.87;;
1505;SDS011;744;51.436;7.356;2023-05-21T00:37:55;11.60;;;9.53;;
1505;SDS011;744;51.436;7.356;2023-05-21T00:40:22;12.20;;;11.00;;
1505;SDS011;744;51.436;7.356;2023-05-21T00:42:49;11.33;;;10.23;;
1505;SDS011;744;51.436;7.356;2023-05-21T00:45:16;11.37;;;10.17;;
1505;SDS011;744;51.436;7.356;2023-05-21T00:47:43;12.03;;;10.83;;
1505;SDS011;744;51.436;7.356;2023-05-21T00:50:11;11.93;;;10.73;;
1505;SDS011;744;51.436;7.356;2023-05-21T00:52:40;13.50;;;11.77;;
1505;SDS011;744;51.436;7.356;2023-05-21T00:55:09;11.93;;;10.80;;
1505;SDS011;744;51.436;7.356;2023-05-21T00:57:36;12.50;;;11.20;;
1505;SDS011;744;51.436;7.356;2023-05-21T01:00:04;12.90;;;11.53;;
1505;SDS011;744;51.436;7.356;2023-05-21T01:02:34;13.30;;;12.00;;
1505;SDS011;744;51.436;7.356;2023-05-21T01:05:03;10.53;;;9.43;;
1505;SDS011;744;51.436;7.356;2023-05-21T01:07:35;11.90;;;10.47;;
1505;SDS011;744;51.436;7.356;2023-05-21T01:10:04;12.37;;;11.07;;
1505;SDS011;744;51.436;7.356;2023-05-21T01:12:33;14.43;;;11.13;;
1505;SDS011;744;51.436;7.356;2023-05-21T01:15:02;12.87;;;11.33;;
1505;SDS011;744;51.436;7.356;2023-05-21T01:17:30;11.20;;;10.10;;
1505;SDS011;744;51.436;7.356;2023-05-21T01:20:00;10.77;;;9.63;;
1505;SDS011;744;51.436;7.356;2023-05-21T01:22:27;11.13;;;9.70;;
1505;SDS011;744;51.436;7.356;2023-05-21T01:24:57;11.60;;;10.47;;
1505;SDS011;744;51.436;7.356;2023-05-21T01:27:28;12.23;;;11.03;;
1505;SDS011;744;51.436;7.356;2023-05-21T01:29:54;10.93;;;9.17;;
1505;SDS011;744;51.436;7.356;2023-05-21T01:32:25;10.87;;;9.67;;
1505;SDS011;744;51.436;7.356;2023-05-21T01:35:04;13.17;;;9.67;;
1505;SDS011;744;51.436;7.356;2023-05-21T01:37:38;11.50;;;10.30;;
1505;SDS011;744;51.436;7.356;2023-05-21T01:40:15;11.77;;;10.47;;
1505;SDS011;744;51.436;7.356;2023-05-21T01:42:47;11.97;;;10.77;;
1505;SDS011;744;51.436;7.356;2023-05-21T01:45:15;15.37;;;10.37;;
1505;SDS011;744;51.436;7.356;2023-05-21T01:47:44;11.13;;;10.13;;
1505;SDS011;744;51.436;7.356;2023-05-21T01:50:14;10.97;;;9.87;;
1505;SDS011;744;51.436;7.356;2023-05-21T01:52:52;13.60;;;9.87;;
1505;SDS011;744;51.436;7.356;2023-05-21T01:55:22;11.27;;;9.90;;
1505;SDS011;744;51.436;7.356;2023-05-21T01:57:53;12.23;;;10.80;;
1505;SDS011;744;51.436;7.356;2023-05-21T02:00:21;10.93;;;9.80;;
1505;SDS011;744;51.436;7.356;2023-05-21T02:02:49;10.20;;;9.10;;
1505;SDS011;744;51.436;7.356;2023-05-21T02:05:17;11.73;;;9.93;;
1505;SDS011;744;51.436;7.356;2023-05-21T02:07:44;11.33;;;10.13;;
1505;SDS011;744;51.436;7.356;2023-05-21T02:10:12;12.53;;;10.83;;
1505;SDS011;744;51.436;7.356;2023-05-21T02:12:39;11.37;;;10.27;;
1505;SDS011;744;51.436;7.356;2023-05-21T02:15:06;10.47;;;9.47;;
1505;SDS011;744;51.436;7.356;2023-05-21T02:17:33;10.57;;;9.53;;
1505;SDS011;744;51.436;7.356;2023-05-21T02:20:00;12.37;;;10.13;;
1505;SDS011;744;51.436;7.356;2023-05-21T02:22:43;10.30;;;9.30;;
1505;SDS011;744;51.436;7.356;2023-05-21T02:25:12;10.27;;;9.27;;
1505;SDS011;744;51.436;7.356;2023-05-21T02:27:41;9.80;;;8.27;;
1505;SDS011;744;51.436;7.356;2023-05-21T02:30:09;10.67;;;9.67;;
1505;SDS011;744;51.436;7.356;2023-05-21T02:32:37;10.23;;;9.23;;
1505;SDS011;744;51.436;7.356;2023-05-21T02:35:09;9.60;;;8.33;;
1505;SDS011;744;51.436;7.356;2023-05-21T02:37:37;12.90;;;9.47;;
1505;SDS011;744;51.436;7.356;2023-05-21T02:40:09;9.33;;;8.30;;
1505;SDS011;744;51.436;7.356;2023-05-21T02:42:37;9.87;;;8.97;;
1505;SDS011;744;51.436;7.356;2023-05-21T02:45:09;9.67;;;8.77;;
1505;SDS011;744;51.436;7.356;2023-05-21T02:47:37;9.90;;;8.90;;
1505;SDS011;744;51.436;7.356;2023-05-21T02:50:04;9.53;;;8.63;;
1505;SDS011;744;51.436;7.356;2023-05-21T02:52:33;9.33;;;8.43;;
1505;SDS011;744;51.436;7.356;2023-05-21T02:54:59;9.63;;;8.73;;
1505;SDS011;744;51.436;7.356;2023-05-21T02:57:26;9.07;;;8.27;;
1505;SDS011;744;51.436;7.356;2023-05-21T02:59:53;8.20;;;7.40;;
1505;SDS011;744;51.436;7.356;2023-05-21T03:02:20;10.57;;;8.70;;
1505;SDS011;744;51.436;7.356;2023-05-21T03:04:47;9.00;;;8.10;;
1505;SDS011;744;51.436;7.356;2023-05-21T03:07:14;9.30;;;8.40;;
1505;SDS011;744;51.436;7.356;2023-05-21T03:09:44;8.60;;;7.70;;
1505;SDS011;744;51.436;7.356;2023-05-21T03:12:11;8.60;;;7.37;;
1505;SDS011;744;51.436;7.356;2023-05-21T03:14:38;9.83;;;9.00;;
1505;SDS011;744;51.436;7.356;2023-05-21T03:17:05;9.57;;;8.67;;
1505;SDS011;744;51.436;7.356;2023-05-21T03:19:33;9.90;;;8.40;;
1505;SDS011;744;51.436;7.356;2023-05-21T03:22:01;10.50;;;9.50;;
1505;SDS011;744;51.436;7.356;2023-05-21T03:24:29;9.60;;;8.70;;
1505;SDS011;744;51.436;7.356;2023-05-21T03:26:57;10.30;;;9.20;;
1505;SDS011;744;51.436;7.356;2023-05-21T03:29:24;10.07;;;9.03;;
1505;SDS011;744;51.436;7.356;2023-05-21T03:31:51;10.97;;;9.87;;
1505;SDS011;744;51.436;7.356;2023-05-21T03:34:22;11.73;;;8.70;;
1505;SDS011;744;51.436;7.356;2023-05-21T03:36:49;10.73;;;9.63;;
1505;SDS011;744;51.436;7.356;2023-05-21T03:39:16;14.37;;;9.10;;
1505;SDS011;744;51.436;7.356;2023-05-21T03:41:43;10.83;;;9.37;;
1505;SDS011;744;51.436;7.356;2023-05-21T03:44:10;10.17;;;9.07;;
1505;SDS011;744;51.436;7.356;2023-05-21T03:46:37;11.20;;;8.30;;
1505;SDS011;744;51.436;7.356;2023-05-21T03:49:04;9.83;;;8.90;;
1505;SDS011;744;51.436;7.356;2023-05-21T03:51:31;10.40;;;8.77;;
1505;SDS011;744;51.436;7.356;2023-05-21T03:53:58;10.47;;;9.40;;
1505;SDS011;744;51.436;7.356;2023-05-21T03:56:26;8.43;;;7.63;;
1505;SDS011;744;51.436;7.356;2023-05-21T03:58:53;9.00;;;8.10;;
1505;SDS011;744;51.436;7.356;2023-05-21T04:01:20;9.80;;;8.80;;
1505;SDS011;744;51.436;7.356;2023-05-21T04:03:47;8.50;;;7.70;;
1505;SDS011;744;51.436;7.356;2023-05-21T04:06:14;10.90;;;7.87;;
1505;SDS011;744;51.436;7.356;2023-05-21T04:08:41;8.93;;;7.80;;
1505;SDS011;744;51.436;7.356;2023-05-21T04:11:09;7.83;;;7.10;;
1505;SDS011;744;51.436;7.356;2023-05-21T04:13:36;8.70;;;7.80;;
1505;SDS011;744;51.436;7.356;2023-05-21T04:16:04;8.50;;;7.67;;
1505;SDS011;744;51.436;7.356;2023-05-21T04:18:34;9.90;;;8.60;;
1505;SDS011;744;51.436;7.356;2023-05-21T04:21:01;12.93;;;9.30;;
1505;SDS011;744;51.436;7.356;2023-05-21T04:23:28;9.90;;;9.00;;
1505;SDS011;744;51.436;7.356;2023-05-21T04:25:54;9.70;;;8.77;;
1505;SDS011;744;51.436;7.356;2023-05-21T04:28:21;9.60;;;8.60;;
1505;SDS011;744;51.436;7.356;2023-05-21T04:30:49;10.00;;;9.00;;
1505;SDS011;744;51.436;7.356;2023-05-21T04:33:16;9.47;;;8.23;;
1505;SDS011;744;51.436;7.356;2023-05-21T04:35:45;9.13;;;8.23;;
1505;SDS011;744;51.436;7.356;2023-05-21T04:38:15;9.13;;;8.33;;
1505;SDS011;744;51.436;7.356;2023-05-21T04:40:48;11.23;;;8.97;;
1505;SDS011;744;51.436;7.356;2023-05-21T04:43:18;7.80;;;7.10;;
1505;SDS011;744;51.436;7.356;2023-05-21T04:45:51;10.97;;;7.70;;
1505;SDS011;744;51.436;7.356;2023-05-21T04:48:20;9.90;;;8.90;;
1505;SDS011;744;51.436;7.356;2023-05-21T04:50:52;10.33;;;8.47;;
1505;SDS011;744;51.436;7.356;2023-05-21T04:53:21;8.07;;;7.30;;
1505;SDS011;744;51.436;7.356;2023-05-21T04:55:51;9.03;;;7.50;;
1505;SDS011;744;51.436;7.356;2023-05-21T04:58:18;8.20;;;7.37;;
1505;SDS011;744;51.436;7.356;2023-05-21T05:00:45;9.73;;;7.97;;
1505;SDS011;744;51.436;7.356;2023-05-21T05:03:12;8.23;;;7.43;;
1505;SDS011;744;51.436;7.356;2023-05-21T05:05:39;8.53;;;7.73;;
1505;SDS011;744;51.436;7.356;2023-05-21T05:08:07;9.83;;;8.70;;
1505;SDS011;744;51.436;7.356;2023-05-21T05:10:34;10.40;;;7.40;;
1505;SDS011;744;51.436;7.356;2023-05-21T05:13:01;8.23;;;7.47;;
1505;SDS011;744;51.436;7.356;2023-05-21T05:15:28;8.67;;;7.77;;
1505;SDS011;744;51.436;7.356;2023-05-21T05:17:55;7.37;;;6.70;;
1505;SDS011;744;51.436;7.356;2023-05-21T05:20:22;11.17;;;7.37;;
1505;SDS011;744;51.436;7.356;2023-05-21T05:22:48;8.77;;;7.90;;
1505;SDS011;744;51.436;7.356;2023-05-21T05:25:15;9.27;;;7.47;;
1505;SDS011;744;51.436;7.356;2023-05-21T05:27:42;8.00;;;7.20;;
1505;SDS011;744;51.436;7.356;2023-05-21T05:30:09;8.90;;;8.00;;
1505;SDS011;744;51.436;7.356;2023-05-21T05:32:36;9.77;;;7.93;;
1505;SDS011;744;51.436;7.356;2023-05-21T05:35:03;8.23;;;7.50;;
1505;SDS011;744;51.436;7.356;2023-05-21T05:37:31;8.90;;;8.10;;
1505;SDS011;744;51.436;7.356;2023-05-21T05:39:58;8.23;;;7.53;;
1505;SDS011;744;51.436;7.356;2023-05-21T05:42:25;9.80;;;8.90;;
1505;SDS011;744;51.436;7.356;2023-05-21T05:44:52;9.87;;;8.57;;
1505;SDS011;744;51.436;7.356;2023-05-21T05:47:19;9.53;;;8.63;;
1505;SDS011;744;51.436;7.356;2023-05-21T05:49:47;9.80;;;8.87;;
1505;SDS011;744;51.436;7.356;2023-05-21T05:52:13;9.07;;;8.27;;
1505;SDS011;744;51.436;7.356;2023-05-21T05:54:41;9.33;;;7.90;;
1505;SDS011;744;51.436;7.356;2023-05-21T05:57:07;9.47;;;8.50;;
1505;SDS011;744;51.436;7.356;2023-05-21T05:59:34;8.93;;;8.13;;
1505;SDS011;744;51.436;7.356;2023-05-21T06:02:01;8.83;;;8.03;;
1505;SDS011;744;51.436;7.356;2023-05-21T06:04:28;9.07;;;8.13;;
1505;SDS011;744;51.436;7.356;2023-05-21T06:06:55;8.60;;;7.90;;
1505;SDS011;744;51.436;7.356;2023-05-21T06:09:25;9.93;;;8.70;;
1505;SDS011;744;51.436;7.356;2023-05-21T06:11:52;8.00;;;7.20;;
1505;SDS011;744;51.436;7.356;2023-05-21T06:14:19;8.93;;;8.03;;
1505;SDS011;744;51.436;7.356;2023-05-21T06:16:46;10.57;;;8.87;;
1505;SDS011;744;51.436;7.356;2023-05-21T06:19:13;12.30;;;9.23;;
1505;SDS011;744;51.436;7.356;2023-05-21T06:21:40;9.43;;;8.50;;
1505;SDS011;744;51.436;7.356;2023-05-21T06:24:07;11.37;;;8.60;;
1505;SDS011;744;51.436;7.356;2023-05-21T06:26:33;9.87;;;8.87;;
1505;SDS011;744;51.436;7.356;2023-05-21T06:29:00;9.10;;;8.30;;
1505;SDS011;744;51.436;7.356;2023-05-21T06:31:29;9.00;;;8.20;;
1505;SDS011;744;51.436;7.356;2023-05-21T06:33:58;9.27;;;8.07;;
1505;SDS011;744;51.436;7.356;2023-05-21T06:36:26;9.50;;;8.60;;
1505;SDS011;744;51.436;7.356;2023-05-21T06:38:55;9.10;;;8.20;;
1505;SDS011;744;51.436;7.356;2023-05-21T06:41:22;13.00;;;9.67;;
1505;SDS011;744;51.436;7.356;2023-05-21T06:43:49;9.43;;;8.53;;
1505;SDS011;744;51.436;7.356;2023-05-21T06:46:16;10.03;;;8.80;;
1505;SDS011;744;51.436;7.356;2023-05-21T06:48:43;13.73;;;8.57;;
1505;SDS011;744;51.436;7.356;2023-05-21T06:51:11;9.27;;;8.47;;
1505;SDS011;744;51.436;7.356;2023-05-21T06:53:38;9.33;;;8.43;;
1505;SDS011;744;51.436;7.356;2023-05-21T06:56:05;10.30;;;9.30;;
1505;SDS011;744;51.436;7.356;2023-05-21T06:58:32;9.77;;;8.47;;
1505;SDS011;744;51.436;7.356;2023-05-21T07:00:59;10.67;;;9.60;;
1505;SDS011;744;51.436;7.356;2023-05-21T07:03:27;9.73;;;8.73;;
1505;SDS011;744;51.436;7.356;2023-05-21T07:05:54;10.40;;;9.50;;
1505;SDS011;744;51.436;7.356;2023-05-21T07:08:22;10.27;;;9.37;;
1505;SDS011;744;51.436;7.356;2023-05-21T07:10:49;13.67;;;9.53;;
1505;SDS011;744;51.436;7.356;2023-05-21T07:13:16;13.27;;;10.20;;
1505;SDS011;744;51.436;7.356;2023-05-21T07:15:43;9.10;;;8.10;;
1505;SDS011;744;51.436;7.356;2023-05-21T07:18:10;10.80;;;8.93;;
1505;SDS011;744;51.436;7.356;2023-05-21T07:20:37;9.87;;;8.97;;
1505;SDS011;744;51.436;7.356;2023-05-21T07:23:04;10.63;;;9.63;;
1505;SDS011;744;51.436;7.356;2023-05-21T07:25:31;10.10;;;9.10;;
1505;SDS011;744;51.436;7.356;2023-05-21T07:27:58;9.13;;;8.30;;
1505;SDS011;744;51.436;7.356;2023-05-21T07:30:24;11.03;;;9.90;;
1505;SDS011;744;51.436;7.356;2023-05-21T07:32:51;10.80;;;9.70;;
1505;SDS011;744;51.436;7.356;2023-05-21T07:35:18;10.30;;;9.30;;
1505;SDS011;744;51.436;7.356;2023-05-21T07:37:45;9.13;;;8.40;;
1505;SDS011;744;51.436;7.356;2023-05-21T07:40:13;11.03;;;10.03;;
1505;SDS011;744;51.436;7.356;2023-05-21T07:42:40;10.43;;;9.43;;
1505;SDS011;744;51.436;7.356;2023-05-21T07:45:07;10.60;;;9.67;;
1505;SDS011;744;51.436;7.356;2023-05-21T07:47:34;11.00;;;9.50;;
1505;SDS011;744;51.436;7.356;2023-05-21T07:50:01;10.60;;;9.63;;
1505;SDS011;744;51.436;7.356;2023-05-21T07:52:28;11.00;;;9.90;;
1505;SDS011;744;51.436;7.356;2023-05-21T07:54:55;14.27;;;11.00;;
1505;SDS011;744;51.436;7.356;2023-05-21T07:57:22;10.70;;;9.73;;
1505;SDS011;744;51.436;7.356;2023-05-21T07:59:49;9.63;;;8.80;;
1505;SDS011;744;51.436;7.356;2023-05-21T08:02:16;12.50;;;9.33;;
1505;SDS011;744;51.436;7.356;2023-05-21T08:04:43;10.27;;;9.27;;
1505;SDS011;744;51.436;7.356;2023-05-21T08:07:09;10.43;;;9.40;;
1505;SDS011;744;51.436;7.356;2023-05-21T08:09:38;11.20;;;10.20;;
1505;SDS011;744;51.436;7.356;2023-05-21T08:12:05;11.33;;;10.23;;
1505;SDS011;744;51.436;7.356;2023-05-21T08:14:32;11.50;;;10.30;;
1505;SDS011;744;51.436;7.356;2023-05-21T08:16:59;11.90;;;10.83;;
1505;SDS011;744;51.436;7.356;2023-05-21T08:19:26;11.43;;;10.23;;
1505;SDS011;744;51.436;7.356;2023-05-21T08:21:53;11.80;;;10.00;;
1505;SDS011;744;51.436;7.356;2023-05-21T08:24:20;11.23;;;10.17;;
1505;SDS011;744;51.436;7.356;2023-05-21T08:26:46;11.43;;;10.33;;
1505;SDS011;744;51.436;7.356;2023-05-21T08:29:15;10.50;;;9.40;;
1505;SDS011;744;51.436;7.356;2023-05-21T08:31:42;10.83;;;9.57;;
1505;SDS011;744;51.436;7.356;2023-05-21T08:34:09;10.73;;;9.70;;
1505;SDS011;744;51.436;7.356;2023-05-21T08:36:36;10.73;;;9.63;;
1505;SDS011;744;51.436;7.356;2023-05-21T08:39:03;10.50;;;9.50;;
1505;SDS011;744;51.436;7.356;2023-05-21T08:41:30;11.67;;;10.47;;
1505;SDS011;744;51.436;7.356;2023-05-21T08:44:00;11.60;;;10.30;;
1505;SDS011;744;51.436;7.356;2023-05-21T08:46:28;12.83;;;11.63;;
1505;SDS011;744;51.436;7.356;2023-05-21T08:48:58;12.03;;;10.93;;
1505;SDS011;744;51.436;7.356;2023-05-21T08:51:28;13.33;;;10.63;;
1505;SDS011;744;51.436;7.356;2023-05-21T08:53:56;13.70;;;12.40;;
1505;SDS011;744;51.436;7.356;2023-05-21T08:56:25;11.83;;;10.73;;
1505;SDS011;744;51.436;7.356;2023-05-21T08:58:52;11.97;;;10.73;;
1505;SDS011;744;51.436;7.356;2023-05-21T09:01:19;13.27;;;11.93;;
1505;SDS011;744;51.436;7.356;2023-05-21T09:03:51;12.80;;;10.97;;
1505;SDS011;744;51.436;7.356;2023-05-21T09:06:39;15.53;;;11.87;;
1505;SDS011;744;51.436;7.356;2023-05-21T09:09:09;11.50;;;10.40;;
1505;SDS011;744;51.436;7.356;2023-05-21T09:11:43;12.40;;;11.20;;
1505;SDS011;744;51.436;7.356;2023-05-21T09:14:11;13.20;;;11.87;;
1505;SDS011;744;51.436;7.356;2023-05-21T09:16:39;12.40;;;11.20;;
1505;SDS011;744;51.436;7.356;2023-05-21T09:19:06;13.00;;;11.70;;
1505;SDS011;744;51.436;7.356;2023-05-21T09:21:33;13.40;;;12.00;;
1505;SDS011;744;51.436;7.356;2023-05-21T09:24:00;13.30;;;12.10;;
1505;SDS011;744;51.436;7.356;2023-05-21T09:26:27;18.03;;;13.70;;
1505;SDS011;744;51.436;7.356;2023-05-21T09:28:58;14.00;;;12.70;;
1505;SDS011;744;51.436;7.356;2023-05-21T09:31:25;13.50;;;12.20;;
1505;SDS011;744;51.436;7.356;2023-05-21T09:33:52;13.13;;;11.83;;
1505;SDS011;744;51.436;7.356;2023-05-21T09:36:20;14.00;;;12.60;;
1505;SDS011;744;51.436;7.356;2023-05-21T09:38:49;13.43;;;12.03;;
1505;SDS011;744;51.436;7.356;2023-05-21T09:41:17;14.90;;;13.40;;
1505;SDS011;744;51.436;7.356;2023-05-21T09:43:47;14.77;;;11.30;;
1505;SDS011;744;51.436;7.356;2023-05-21T09:46:14;13.53;;;12.13;;
1505;SDS011;744;51.436;7.356;2023-05-21T09:48:45;13.77;;;12.17;;
1505;SDS011;744;51.436;7.356;2023-05-21T09:51:14;13.20;;;11.90;;
1505;SDS011;744;51.436;7.356;2023-05-21T09:53:54;13.73;;;12.40;;
1505;SDS011;744;51.436;7.356;2023-05-21T09:56:28;13.70;;;12.40;;
1505;SDS011;744;51.436;7.356;2023-05-21T09:58:57;16.93;;;13.67;;
1505;SDS011;744;51.436;7.356;2023-05-21T10:01:26;14.93;;;13.53;;
1505;SDS011;744;51.436;7.356;2023-05-21T10:03:56;13.03;;;11.73;;
1505;SDS011;744;51.436;7.356;2023-05-21T10:06:28;14.27;;;12.87;;
1505;SDS011;744;51.436;7.356;2023-05-21T10:08:57;13.50;;;12.10;;
1505;SDS011;744;51.436;7.356;2023-05-21T10:11:30;14.50;;;13.03;;
1505;SDS011;744;51.436;7.356;2023-05-21T10:14:05;16.53;;;12.30;;
1505;SDS011;744;51.436;7.356;2023-05-21T10:16:34;14.57;;;13.10;;
1505;SDS011;744;51.436;7.356;2023-05-21T10:19:02;14.43;;;12.90;;
1505;SDS011;744;51.436;7.356;2023-05-21T10:21:30;16.77;;;13.20;;
1505;SDS011;744;51.436;7.356;2023-05-21T10:23:58;13.73;;;12.43;;
1505;SDS011;744;51.436;7.356;2023-05-21T10:26:28;17.30;;;12.90;;
1505;SDS011;744;51.436;7.356;2023-05-21T10:28:55;12.90;;;11.57;;
1505;SDS011;744;51.436;7.356;2023-05-21T10:31:25;16.93;;;14.80;;
1505;SDS011;744;51.436;7.356;2023-05-21T10:33:54;14.20;;;12.90;;
1505;SDS011;744;51.436;7.356;2023-05-21T10:36:22;14.27;;;12.77;;
1505;SDS011;744;51.436;7.356;2023-05-21T10:38:50;14.80;;;12.00;;
1505;SDS011;744;51.436;7.356;2023-05-21T10:41:18;13.83;;;12.40;;
1505;SDS011;744;51.436;7.356;2023-05-21T10:49:18;15.00;;;13.53;;
1505;SDS011;744;51.436;7.356;2023-05-21T10:55:00;15.70;;;14.00;;
1505;SDS011;744;51.436;7.356;2023-05-21T11:00:37;16.80;;;12.63;;
1505;SDS011;744;51.436;7.356;2023-05-21T11:03:04;16.63;;;15.00;;
1505;SDS011;744;51.436;7.356;2023-05-21T11:08:17;14.17;;;12.67;;
1505;SDS011;744;51.436;7.356;2023-05-21T11:10:51;14.67;;;13.37;;
1505;SDS011;744;51.436;7.356;2023-05-21T11:13:20;13.33;;;12.13;;
1505;SDS011;744;51.436;7.356;2023-05-21T11:21:02;14.93;;;13.53;;
1505;SDS011;744;51.436;7.356;2023-05-21T11:26:17;15.40;;;13.80;;
1505;SDS011;744;51.436;7.356;2023-05-21T11:31:32;15.90;;;14.20;;
1505;SDS011;744;51.436;7.356;2023-05-21T11:34:20;16.90;;;15.30;;
1505;SDS011;744;51.436;7.356;2023-05-21T11:39:48;16.30;;;14.63;;
1505;SDS011;744;51.436;7.356;2023-05-21T11:42:28;17.60;;;15.80;;
1505;SDS011;744;51.436;7.356;2023-05-21T11:44:57;14.43;;;13.03;;
1505;SDS011;744;51.436;7.356;2023-05-21T11:47:26;14.50;;;13.10;;
1505;SDS011;744;51.436;7.356;2023-05-21T11:49:54;15.50;;;13.93;;
1505;SDS011;744;51.436;7.356;2023-05-21T11:52:23;15.47;;;13.87;;
1505;SDS011;744;51.436;7.356;2023-05-21T11:54:51;16.37;;;14.80;;
1505;SDS011;744;51.436;7.356;2023-05-21T11:57:24;15.20;;;13.60;;
1505;SDS011;744;51.436;7.356;2023-05-21T11:59:56;14.33;;;13.03;;
1505;SDS011;744;51.436;7.356;2023-05-21T12:02:30;16.50;;;14.77;;
1505;SDS011;744;51.436;7.356;2023-05-21T12:04:57;15.97;;;14.47;;
1505;SDS011;744;51.436;7.356;2023-05-21T12:07:26;19.70;;;17.70;;
1505;SDS011;744;51.436;7.356;2023-05-21T12:09:57;15.70;;;14.23;;
1505;SDS011;744;51.436;7.356;2023-05-21T12:12:24;16.00;;;14.43;;
1505;SDS011;744;51.436;7.356;2023-05-21T12:15:00;15.53;;;13.93;;
1505;SDS011;744;51.436;7.356;2023-05-21T12:17:28;17.50;;;15.80;;
1505;SDS011;744;51.436;7.356;2023-05-21T12:19:57;17.20;;;15.60;;
1505;SDS011;744;51.436;7.356;2023-05-21T12:22:24;17.30;;;15.00;;
1505;SDS011;744;51.436;7.356;2023-05-21T12:24:53;17.60;;;15.90;;
1505;SDS011;744;51.436;7.356;2023-05-21T12:27:20;17.13;;;15.40;;
1505;SDS011;744;51.436;7.356;2023-05-21T12:29:49;14.83;;;13.53;;
1505;SDS011;744;51.436;7.356;2023-05-21T12:32:18;15.80;;;14.20;;
1505;SDS011;744;51.436;7.356;2023-05-21T12:37:20;15.17;;;13.80;;
1505;SDS011;744;51.436;7.356;2023-05-21T12:39:49;14.70;;;13.40;;
1505;SDS011;744;51.436;7.356;2023-05-21T12:42:32;16.47;;;13.50;;
1505;SDS011;744;51.436;7.356;2023-05-21T12:45:06;15.07;;;13.70;;
1505;SDS011;744;51.436;7.356;2023-05-21T12:47:33;16.10;;;14.60;;
1505;SDS011;744;51.436;7.356;2023-05-21T12:50:01;14.40;;;12.90;;
1505;SDS011;744;51.436;7.356;2023-05-21T12:52:29;15.10;;;13.80;;
1505;SDS011;744;51.436;7.356;2023-05-21T12:54:57;17.60;;;15.50;;
1505;SDS011;744;51.436;7.356;2023-05-21T12:57:25;16.67;;;15.07;;
1505;SDS011;744;51.436;7.356;2023-05-21T13:00:02;17.13;;;15.50;;
1505;SDS011;744;51.436;7.356;2023-05-21T13:02:33;15.13;;;13.63;;
1505;SDS011;744;51.436;7.356;2023-05-21T13:05:05;22.97;;;18.80;;
1505;SDS011;744;51.436;7.356;2023-05-21T13:07:36;16.40;;;14.80;;
1505;SDS011;744;51.436;7.356;2023-05-21T13:10:04;16.10;;;14.67;;
1505;SDS011;744;51.436;7.356;2023-05-21T13:12:32;14.60;;;13.33;;
1505;SDS011;744;51.436;7.356;2023-05-21T13:15:00;17.40;;;15.63;;
1505;SDS011;744;51.436;7.356;2023-05-21T13:17:29;18.20;;;16.50;;
1505;SDS011;744;51.436;7.356;2023-05-21T13:22:38;20.23;;;14.07;;
1505;SDS011;744;51.436;7.356;2023-05-21T13:25:09;14.93;;;13.63;;
1505;SDS011;744;51.436;7.356;2023-05-21T13:27:37;15.33;;;13.93;;
1505;SDS011;744;51.436;7.356;2023-05-21T13:30:05;16.93;;;15.37;;
1505;SDS011;744;51.436;7.356;2023-05-21T13:32:32;15.57;;;14.07;;
1505;SDS011;744;51.436;7.356;2023-05-21T13:35:00;14.40;;;12.90;;
1505;SDS011;744;51.436;7.356;2023-05-21T13:37:27;14.73;;;13.23;;
1505;SDS011;744;51.436;7.356;2023-05-21T13:39:53;14.77;;;13.47;;
1505;SDS011;744;51.436;7.356;2023-05-21T13:42:20;13.03;;;11.83;;
1505;SDS011;744;51.436;7.356;2023-05-21T13:44:47;13.73;;;12.53;;
1505;SDS011;744;51.436;7.356;2023-05-21T13:47:15;13.90;;;12.60;;
1505;SDS011;744;51.436;7.356;2023-05-21T13:49:42;14.57;;;13.37;;
1505;SDS011;744;51.436;7.356;2023-05-21T13:52:08;12.90;;;11.80;;
1505;SDS011;744;51.436;7.356;2023-05-21T13:54:35;14.40;;;13.07;;
1505;SDS011;744;51.436;7.356;2023-05-21T13:57:02;18.33;;;12.50;;
1505;SDS011;744;51.436;7.356;2023-05-21T13:59:29;20.73;;;12.50;;
1505;SDS011;744;51.436;7.356;2023-05-21T14:01:59;12.47;;;11.27;;
1505;SDS011;744;51.436;7.356;2023-05-21T14:04:26;12.60;;;11.40;;
1505;SDS011;744;51.436;7.356;2023-05-21T14:06:53;14.90;;;13.50;;
1505;SDS011;744;51.436;7.356;2023-05-21T14:09:20;13.80;;;12.50;;
1505;SDS011;744;51.436;7.356;2023-05-21T14:11:48;14.07;;;12.87;;
1505;SDS011;744;51.436;7.356;2023-05-21T14:14:16;14.70;;;12.23;;
1505;SDS011;744;51.436;7.356;2023-05-21T14:16:44;14.07;;;12.00;;
1505;SDS011;744;51.436;7.356;2023-05-21T14:19:14;13.10;;;11.90;;
1505;SDS011;744;51.436;7.356;2023-05-21T14:21:41;13.30;;;12.00;;
1505;SDS011;744;51.436;7.356;2023-05-21T14:24:09;14.07;;;12.67;;
1505;SDS011;744;51.436;7.356;2023-05-21T14:26:36;15.47;;;14.17;;
1505;SDS011;744;51.436;7.356;2023-05-21T14:29:05;13.57;;;12.37;;
1505;SDS011;744;51.436;7.356;2023-05-21T14:31:32;13.53;;;12.33;;
1505;SDS011;744;51.436;7.356;2023-05-21T14:33:59;13.90;;;12.50;;
1505;SDS011;744;51.436;7.356;2023-05-21T14:36:28;13.50;;;12.30;;
1505;SDS011;744;51.436;7.356;2023-05-21T14:38:55;12.17;;;11.03;;
1505;SDS011;744;51.436;7.356;2023-05-21T14:41:25;13.00;;;11.90;;
1505;SDS011;744;51.436;7.356;2023-05-21T14:43:53;12.73;;;11.47;;
1505;SDS011;744;51.436;7.356;2023-05-21T14:46:20;14.30;;;12.67;;
1505;SDS011;744;51.436;7.356;2023-05-21T14:48:47;15.33;;;13.57;;
1505;SDS011;744;51.436;7.356;2023-05-21T14:51:14;14.33;;;12.43;;
1505;SDS011;744;51.436;7.356;2023-05-21T14:53:41;14.03;;;12.63;;
1505;SDS011;744;51.436;7.356;2023-05-21T14:56:08;13.50;;;12.20;;
1505;SDS011;744;51.436;7.356;2023-05-21T14:58:35;13.27;;;12.07;;
1505;SDS011;744;51.436;7.356;2023-05-21T15:01:02;14.20;;;12.40;;
1505;SDS011;744;51.436;7.356;2023-05-21T15:03:32;13.87;;;12.57;;
1505;SDS011;744;51.436;7.356;2023-05-21T15:05:59;11.57;;;10.40;;
1505;SDS011;744;51.436;7.356;2023-05-21T15:08:26;13.37;;;12.07;;
1505;SDS011;744;51.436;7.356;2023-05-21T15:10:53;13.23;;;12.13;;
1505;SDS011;744;51.436;7.356;2023-05-21T15:13:19;12.87;;;11.77;;
1505;SDS011;744;51.436;7.356;2023-05-21T15:18:14;13.83;;;12.43;;
1505;SDS011;744;51.436;7.356;2023-05-21T15:20:41;13.17;;;12.07;;
1505;SDS011;744;51.436;7.356;2023-05-21T15:23:08;13.20;;;12.00;;
1505;SDS011;744;51.436;7.356;2023-05-21T15:25:43;12.97;;;11.67;;
1505;SDS011;744;51.436;7.356;2023-05-21T15:28:10;15.10;;;12.40;;
1505;SDS011;744;51.436;7.356;2023-05-21T15:30:37;13.40;;;12.00;;
1505;SDS011;744;51.436;7.356;2023-05-21T15:33:05;13.37;;;12.13;;
1505;SDS011;744;51.436;7.356;2023-05-21T15:35:31;13.03;;;11.77;;
1505;SDS011;744;51.436;7.356;2023-05-21T15:38:00;12.43;;;11.43;;
1505;SDS011;744;51.436;7.356;2023-05-21T15:40:27;16.20;;;12.03;;
1505;SDS011;744;51.436;7.356;2023-05-21T15:42:54;11.50;;;10.50;;
1505;SDS011;744;51.436;7.356;2023-05-21T15:45:20;13.10;;;12.10;;
1505;SDS011;744;51.436;7.356;2023-05-21T15:47:47;12.57;;;11.37;;
1505;SDS011;744;51.436;7.356;2023-05-21T15:50:14;13.17;;;11.77;;
1505;SDS011;744;51.436;7.356;2023-05-21T15:52:41;13.60;;;12.20;;